createdAt,value
2023-02-13T00:00:47.251Z,12.83
2023-02-13T00:03:14.366Z,15.10
2023-02-13T00:05:41.437Z,14.07
2023-02-13T00:08:08.402Z,17.80
2023-02-13T00:10:35.394Z,17.23
2023-02-13T00:13:02.417Z,11.73
2023-02-13T00:15:29.457Z,11.73
2023-02-13T00:17:56.475Z,10.17
2023-02-13T00:20:24.476Z,12.60
2023-02-13T00:22:51.470Z,10.07
2023-02-13T00:25:18.729Z,11.27
2023-02-13T00:27:45.780Z,7.77
2023-02-13T00:30:13.590Z,10.57
2023-02-13T00:32:40.559Z,8.20
2023-02-13T00:35:10.637Z,8.00
2023-02-13T00:37:38.295Z,6.43
2023-02-13T00:40:05.941Z,6.67
2023-02-13T00:42:32.871Z,5.57
2023-02-13T00:44:59.802Z,4.73
2023-02-13T00:47:26.862Z,3.90
2023-02-13T00:49:53.791Z,4.57
2023-02-13T00:52:20.682Z,3.80
2023-02-13T00:54:47.849Z,3.73
2023-02-13T00:57:14.796Z,4.20
2023-02-13T00:59:41.738Z,3.30
2023-02-13T01:02:08.679Z,2.80
2023-02-13T01:04:35.711Z,2.33
2023-02-13T01:07:02.642Z,2.73
2023-02-13T01:09:29.608Z,2.53
2023-02-13T01:11:56.560Z,1.87
2023-02-13T01:14:23.521Z,2.03
2023-02-13T01:16:50.443Z,1.70
2023-02-13T01:19:17.538Z,2.27
2023-02-13T01:21:44.682Z,1.57
2023-02-13T01:24:12.031Z,2.70
2023-02-13T01:26:39.572Z,1.83
2023-02-13T01:29:06.961Z,2.57
2023-02-13T01:31:34.386Z,2.60
2023-02-13T01:34:01.413Z,2.53
2023-02-13T01:36:28.593Z,4.40
2023-02-13T01:38:58.223Z,1.73
2023-02-13T01:41:27.379Z,2.03
2023-02-13T01:43:58.106Z,1.97
2023-02-13T01:46:43.404Z,1.70
2023-02-13T01:49:18.787Z,2.47
2023-02-13T01:51:47.558Z,2.10
2023-02-13T01:54:23.251Z,2.63
2023-02-13T01:56:55.908Z,2.17
2023-02-13T01:59:44.564Z,2.60
2023-02-13T02:02:11.505Z,2.63
2023-02-13T02:04:41.409Z,2.73
2023-02-13T02:07:20.696Z,3.37
2023-02-13T02:09:48.441Z,2.17
2023-02-13T02:12:31.915Z,3.00
2023-02-13T02:15:01.534Z,2.80
2023-02-13T02:17:28.616Z,3.00
2023-02-13T02:20:33.668Z,3.50
2023-02-13T02:23:37.346Z,3.67
2023-02-13T02:26:28.756Z,3.07
2023-02-13T02:29:25.187Z,3.10
2023-02-13T02:32:45.676Z,3.80
2023-02-13T02:35:36.635Z,3.90
2023-02-13T02:38:42.064Z,3.87
2023-02-13T02:41:42.590Z,4.40
2023-02-13T02:44:34.942Z,5.00
2023-02-13T02:47:32.699Z,4.00
2023-02-13T02:50:17.771Z,4.47
2023-02-13T02:55:47.672Z,5.03
2023-02-13T02:59:21.180Z,4.83
2023-02-13T03:02:08.400Z,4.50
2023-02-13T03:05:10.190Z,5.47
2023-02-13T03:07:37.084Z,4.50
2023-02-13T03:10:32.084Z,5.03
2023-02-13T03:13:21.602Z,5.27
2023-02-13T03:16:13.548Z,5.60
2023-02-13T03:19:04.382Z,5.73
2023-02-13T03:22:16.504Z,5.60
2023-02-13T03:25:18.723Z,5.80
2023-02-13T03:28:36.674Z,6.80
2023-02-13T03:31:15.365Z,6.97
2023-02-13T03:34:10.997Z,6.27
2023-02-13T03:37:09.566Z,6.30
2023-02-13T03:40:02.204Z,6.70
2023-02-13T03:42:47.448Z,6.57
2023-02-13T03:45:44.374Z,6.13
2023-02-13T03:48:33.160Z,6.70
2023-02-13T03:51:02.719Z,7.83
2023-02-13T03:53:33.547Z,7.57
2023-02-13T03:56:21.970Z,7.07
2023-02-13T03:59:12.040Z,7.13
2023-02-13T04:01:40.114Z,6.90
2023-02-13T04:04:23.303Z,7.40
2023-02-13T04:07:08.870Z,7.27
2023-02-13T04:09:41.459Z,7.70
2023-02-13T04:12:24.839Z,6.60
2023-02-13T04:15:29.455Z,7.90
2023-02-13T04:18:09.643Z,7.90
2023-02-13T04:20:39.811Z,7.80
2023-02-13T04:23:11.565Z,8.43
2023-02-13T04:25:42.073Z,8.27
2023-02-13T04:28:09.321Z,9.17
2023-02-13T04:30:36.361Z,9.00
2023-02-13T04:33:03.303Z,8.47
2023-02-13T04:35:30.421Z,8.03
2023-02-13T04:37:57.295Z,8.70
2023-02-13T04:40:24.370Z,8.93
2023-02-13T04:42:51.266Z,8.63
2023-02-13T04:45:18.285Z,9.00
2023-02-13T04:47:54.359Z,8.00
2023-02-13T04:50:22.357Z,19.73
2023-02-13T04:52:55.577Z,12.77
2023-02-13T04:55:24.412Z,8.27
2023-02-13T04:57:55.864Z,7.30
2023-02-13T05:00:26.117Z,8.20
2023-02-13T05:02:53.901Z,7.67
2023-02-13T05:05:21.489Z,8.00
2023-02-13T05:07:48.502Z,8.23
2023-02-13T05:10:15.743Z,8.40
2023-02-13T05:12:42.642Z,7.20
2023-02-13T05:15:10.376Z,7.77
2023-02-13T05:17:37.299Z,5.90
2023-02-13T05:20:04.426Z,6.13
2023-02-13T05:22:50.116Z,6.23
2023-02-13T05:25:17.235Z,5.73
2023-02-13T05:27:44.177Z,5.87
2023-02-13T05:30:12.180Z,5.90
2023-02-13T05:32:39.236Z,5.10
2023-02-13T05:35:06.562Z,5.97
2023-02-13T05:37:33.466Z,5.60
2023-02-13T05:40:00.335Z,5.13
2023-02-13T05:42:27.311Z,5.53
2023-02-13T05:44:54.269Z,5.00
2023-02-13T05:47:21.128Z,5.83
2023-02-13T05:49:48.039Z,5.97
2023-02-13T05:52:14.951Z,5.30
2023-02-13T05:54:41.830Z,5.80
2023-02-13T05:57:08.741Z,5.40
2023-02-13T05:59:35.635Z,6.03
2023-02-13T06:02:02.529Z,5.20
2023-02-13T06:04:29.470Z,4.87
2023-02-13T06:06:56.374Z,5.37
2023-02-13T06:09:23.320Z,5.17
2023-02-13T06:11:50.209Z,5.30
2023-02-13T06:14:17.149Z,5.43
2023-02-13T06:16:44.186Z,5.00
2023-02-13T06:19:11.086Z,5.03
2023-02-13T06:21:38.531Z,5.50
2023-02-13T06:24:08.283Z,3.60
2023-02-13T06:26:35.584Z,4.80
2023-02-13T06:29:02.484Z,4.50
2023-02-13T06:31:29.466Z,4.97
2023-02-13T06:33:56.486Z,4.73
2023-02-13T06:36:23.372Z,5.23
2023-02-13T06:38:50.378Z,4.73
2023-02-13T06:41:17.300Z,5.40
2023-02-13T06:43:44.148Z,5.40
2023-02-13T06:46:11.160Z,5.10
2023-02-13T06:48:38.131Z,5.30
2023-02-13T06:51:05.513Z,7.00
2023-02-13T06:53:32.403Z,6.17
2023-02-13T06:55:59.388Z,5.17
2023-02-13T06:58:26.717Z,4.80
2023-02-13T07:00:54.057Z,6.07
2023-02-13T07:03:21.337Z,5.70
2023-02-13T07:05:48.298Z,5.47
2023-02-13T07:08:15.218Z,6.00
2023-02-13T07:10:42.602Z,5.53
2023-02-13T07:13:10.242Z,6.10
2023-02-13T07:15:38.282Z,5.40
2023-02-13T07:18:06.318Z,7.20
2023-02-13T07:20:33.893Z,7.33
2023-02-13T07:23:04.023Z,7.50
2023-02-13T07:25:31.530Z,10.20
2023-02-13T07:28:06.463Z,10.07
2023-02-13T07:30:34.759Z,10.07
2023-02-13T07:33:03.500Z,17.27
2023-02-13T07:35:31.009Z,12.20
2023-02-13T07:37:58.107Z,12.60
2023-02-13T07:40:25.031Z,8.03
2023-02-13T07:42:51.928Z,6.03
2023-02-13T07:45:18.858Z,6.10
2023-02-13T07:47:45.842Z,6.17
2023-02-13T07:50:13.318Z,6.43
2023-02-13T07:52:40.360Z,6.63
2023-02-13T07:55:08.297Z,5.77
2023-02-13T07:57:35.184Z,7.03
2023-02-13T08:00:02.356Z,6.40
2023-02-13T08:02:29.316Z,6.17
2023-02-13T08:04:56.196Z,5.80
2023-02-13T08:07:23.100Z,6.30
2023-02-13T08:10:08.610Z,5.90
2023-02-13T08:12:36.666Z,7.13
2023-02-13T08:15:04.394Z,7.20
2023-02-13T08:17:31.321Z,6.20
2023-02-13T08:19:58.870Z,6.30
2023-02-13T08:22:25.853Z,5.90
2023-02-13T08:24:53.042Z,5.83
2023-02-13T08:27:20.144Z,5.70
2023-02-13T08:29:49.369Z,6.80
2023-02-13T08:32:16.557Z,6.40
2023-02-13T08:34:43.543Z,6.60
2023-02-13T08:37:10.466Z,5.57
2023-02-13T08:39:37.755Z,6.37
2023-02-13T08:42:04.635Z,6.03
2023-02-13T08:44:31.639Z,5.77
2023-02-13T08:46:58.529Z,5.77
2023-02-13T08:49:25.501Z,5.73
2023-02-13T08:51:52.425Z,6.07
2023-02-13T08:54:19.323Z,5.50
2023-02-13T08:56:46.235Z,6.57
2023-02-13T08:59:13.369Z,7.60
2023-02-13T09:01:40.695Z,7.53
2023-02-13T09:04:07.772Z,6.30
2023-02-13T09:06:34.831Z,6.27
2023-02-13T09:09:01.711Z,6.17
2023-02-13T09:11:28.681Z,6.63
2023-02-13T09:13:55.732Z,6.67
2023-02-13T09:16:22.844Z,6.30
2023-02-13T09:18:51.359Z,6.90
2023-02-13T09:21:20.829Z,6.17
2023-02-13T09:23:47.746Z,6.00
2023-02-13T09:26:16.227Z,7.40
2023-02-13T09:28:44.141Z,6.50
2023-02-13T09:31:20.073Z,10.90
2023-02-13T09:33:49.081Z,15.27
2023-02-13T09:36:20.662Z,7.43
2023-02-13T09:38:52.428Z,7.70
2023-02-13T09:41:23.335Z,6.70
2023-02-13T09:43:59.182Z,11.23
2023-02-13T09:46:40.717Z,8.03
2023-02-13T09:49:16.076Z,10.47
2023-02-13T09:51:54.369Z,8.87
2023-02-13T09:54:22.275Z,8.97
2023-02-13T09:57:28.902Z,9.63
2023-02-13T10:00:16.374Z,8.87
2023-02-13T10:02:59.314Z,8.33
2023-02-13T10:05:47.119Z,8.87
2023-02-13T10:08:48.232Z,9.20
2023-02-13T10:11:47.432Z,7.83
2023-02-13T10:14:27.270Z,8.20
2023-02-13T10:17:06.628Z,7.90
2023-02-13T10:19:55.432Z,9.00
2023-02-13T10:22:36.202Z,8.40
2023-02-13T10:25:21.604Z,7.70
2023-02-13T10:28:15.888Z,14.83
2023-02-13T10:31:03.873Z,8.17
2023-02-13T10:34:02.948Z,9.17
2023-02-13T10:36:37.974Z,8.47
2023-02-13T10:39:07.794Z,7.77
2023-02-13T10:41:43.703Z,8.53
2023-02-13T10:44:19.484Z,6.97
2023-02-13T10:47:19.095Z,8.20
2023-02-13T10:50:13.244Z,7.80
2023-02-13T10:53:18.410Z,16.33
2023-02-13T10:56:26.186Z,9.33
2023-02-13T10:59:14.838Z,7.10
2023-02-13T11:02:25.537Z,8.60
2023-02-13T11:05:02.727Z,7.57
2023-02-13T11:07:31.590Z,8.50
2023-02-13T11:10:21.261Z,8.77
2023-02-13T11:12:49.369Z,8.60
2023-02-13T11:15:25.645Z,9.03
2023-02-13T11:17:55.545Z,8.87
2023-02-13T11:21:02.349Z,8.60
2023-02-13T11:23:32.232Z,9.03
2023-02-13T11:26:08.707Z,9.57
2023-02-13T11:29:05.184Z,16.97
2023-02-13T11:31:38.191Z,10.50
2023-02-13T11:34:27.533Z,10.60
2023-02-13T11:37:22.551Z,9.73
2023-02-13T11:39:54.353Z,9.20
2023-02-13T11:42:32.458Z,9.87
2023-02-13T11:45:22.833Z,9.47
2023-02-13T11:47:50.046Z,22.87
2023-02-13T11:50:35.185Z,30.87
2023-02-13T11:53:05.027Z,13.80
2023-02-13T11:55:40.552Z,10.60
2023-02-13T11:58:16.575Z,11.40
2023-02-13T12:00:44.114Z,11.33
2023-02-13T12:03:30.829Z,11.50
2023-02-13T12:06:15.657Z,10.87
2023-02-13T12:08:47.374Z,11.90
2023-02-13T12:11:47.352Z,12.50
2023-02-13T12:14:23.738Z,11.40
2023-02-13T12:17:00.366Z,10.77
2023-02-13T12:19:51.549Z,11.90
2023-02-13T12:23:06.091Z,11.90
2023-02-13T12:26:31.244Z,12.30
2023-02-13T12:29:38.808Z,13.50
2023-02-13T12:32:37.934Z,12.20
2023-02-13T12:35:44.869Z,13.23
2023-02-13T12:38:35.341Z,11.43
2023-02-13T12:41:22.708Z,13.03
2023-02-13T12:44:10.207Z,13.10
2023-02-13T12:47:09.245Z,12.00
2023-02-13T12:50:01.091Z,12.47
2023-02-13T12:53:08.868Z,13.87
2023-02-13T12:56:15.016Z,13.67
2023-02-13T12:59:07.296Z,12.67
2023-02-13T13:02:07.691Z,14.03
2023-02-13T13:04:50.855Z,11.70
2023-02-13T13:07:33.567Z,12.67
2023-02-13T13:10:27.190Z,13.13
2023-02-13T13:13:12.384Z,12.23
2023-02-13T13:16:06.325Z,11.50
2023-02-13T13:18:58.149Z,10.50
2023-02-13T13:22:00.421Z,11.90
2023-02-13T13:25:08.955Z,11.97
2023-02-13T13:27:50.500Z,10.83
2023-02-13T13:30:35.689Z,11.07
2023-02-13T13:33:24.674Z,11.60
2023-02-13T13:36:26.385Z,11.40
2023-02-13T13:39:17.336Z,11.60
2023-02-13T13:42:01.022Z,13.40
2023-02-13T13:45:07.904Z,11.43
2023-02-13T13:48:26.085Z,11.77
2023-02-13T13:50:53.831Z,11.83
2023-02-13T13:53:26.390Z,11.13
2023-02-13T13:55:53.314Z,10.97
2023-02-13T13:58:38.022Z,11.57
2023-02-13T14:01:30.657Z,12.20
2023-02-13T14:03:59.094Z,11.87
2023-02-13T14:06:39.843Z,12.63
2023-02-13T14:09:09.748Z,11.10
2023-02-13T14:11:44.589Z,11.97
2023-02-13T14:14:28.025Z,34.80
2023-02-13T14:16:57.963Z,16.53
2023-02-13T14:19:40.503Z,12.40
2023-02-13T14:22:34.803Z,11.87
2023-02-13T14:25:28.030Z,12.67
2023-02-13T14:28:02.428Z,13.03
2023-02-13T14:30:34.310Z,18.67
2023-02-13T14:33:08.088Z,12.17
2023-02-13T14:35:37.940Z,11.73
2023-02-13T14:38:22.276Z,12.40
2023-02-13T14:40:50.794Z,13.20
2023-02-13T14:43:33.109Z,11.30
2023-02-13T14:46:26.749Z,13.73
2023-02-13T14:48:58.609Z,11.77
2023-02-13T14:51:38.749Z,12.37
2023-02-13T14:54:51.541Z,12.30
2023-02-13T14:57:27.694Z,12.80
2023-02-13T15:00:02.493Z,12.50
2023-02-13T15:02:37.577Z,12.87
2023-02-13T15:05:15.611Z,12.03
2023-02-13T15:07:51.539Z,12.93
2023-02-13T15:10:47.098Z,39.33
2023-02-13T15:13:18.483Z,16.93
2023-02-13T15:15:58.938Z,13.73
2023-02-13T15:18:37.352Z,13.77
2023-02-13T15:21:04.579Z,13.70
2023-02-13T15:23:33.746Z,12.73
2023-02-13T15:26:08.872Z,13.57
2023-02-13T15:28:36.538Z,12.70
2023-02-13T15:31:17.343Z,23.73
2023-02-13T15:33:47.579Z,31.80
2023-02-13T15:36:27.234Z,12.80
2023-02-13T15:39:04.250Z,13.97
2023-02-13T15:41:38.826Z,13.93
2023-02-13T15:44:06.931Z,12.47
2023-02-13T15:46:38.628Z,12.10
2023-02-13T15:49:19.317Z,12.60
2023-02-13T15:51:47.513Z,13.70
2023-02-13T15:54:32.920Z,13.17
2023-02-13T15:57:04.808Z,13.50
2023-02-13T15:59:37.195Z,13.40
2023-02-13T16:02:13.012Z,13.53
2023-02-13T16:04:41.738Z,13.50
2023-02-13T16:07:13.191Z,12.50
2023-02-13T16:09:40.383Z,13.47
2023-02-13T16:12:18.337Z,22.90
2023-02-13T16:14:54.690Z,14.10
2023-02-13T16:17:30.921Z,12.57
2023-02-13T16:20:05.433Z,11.80
2023-02-13T16:22:39.205Z,11.80
2023-02-13T16:25:12.082Z,12.90
2023-02-13T16:27:58.207Z,14.13
2023-02-13T16:30:37.448Z,13.43
2023-02-13T16:33:16.661Z,13.40
2023-02-13T16:36:11.417Z,12.70
2023-02-13T16:38:49.406Z,14.00
2023-02-13T16:41:19.284Z,13.30
2023-02-13T16:43:52.513Z,12.80
2023-02-13T16:46:28.420Z,27.90
2023-02-13T16:48:58.789Z,13.97
2023-02-13T16:51:40.278Z,13.70
2023-02-13T16:54:29.999Z,20.57
2023-02-13T16:57:06.883Z,21.53
2023-02-13T17:00:02.247Z,14.20
2023-02-13T17:02:34.878Z,14.43
2023-02-13T17:05:08.171Z,15.20
2023-02-13T17:07:44.330Z,15.27
2023-02-13T17:10:33.966Z,13.47
2023-02-13T17:13:11.466Z,14.20
2023-02-13T17:15:43.900Z,13.67
2023-02-13T17:18:11.018Z,12.83
2023-02-13T17:20:41.960Z,14.40
2023-02-13T17:23:23.424Z,13.87
2023-02-13T17:25:53.670Z,14.60
2023-02-13T17:28:22.912Z,17.63
2023-02-13T17:30:53.130Z,15.10
2023-02-13T17:33:34.235Z,16.00
2023-02-13T17:36:02.168Z,14.80
2023-02-13T17:38:29.076Z,16.63
2023-02-13T17:40:56.335Z,14.00
2023-02-13T17:43:25.321Z,13.73
2023-02-13T17:45:52.535Z,22.40
2023-02-13T17:48:19.743Z,32.20
2023-02-13T17:50:49.333Z,19.67
2023-02-13T17:53:23.272Z,16.53
2023-02-13T17:55:50.407Z,29.30
2023-02-13T17:58:17.282Z,15.00
2023-02-13T18:00:44.371Z,16.00
2023-02-13T18:03:12.747Z,16.73
2023-02-13T18:05:40.277Z,14.93
2023-02-13T18:08:08.389Z,14.60
2023-02-13T18:10:37.227Z,13.80
2023-02-13T18:13:04.673Z,13.23
2023-02-13T18:15:39.393Z,16.23
2023-02-13T18:18:06.960Z,14.80
2023-02-13T18:20:34.158Z,22.07
2023-02-13T18:23:01.142Z,17.47
2023-02-13T18:25:29.105Z,15.13
2023-02-13T18:27:56.138Z,13.40
2023-02-13T18:30:23.442Z,14.80
2023-02-13T18:32:55.615Z,17.17
2023-02-13T18:35:23.464Z,18.40
2023-02-13T18:37:50.894Z,16.60
2023-02-13T18:40:18.220Z,16.00
2023-02-13T18:42:45.380Z,14.47
2023-02-13T18:45:12.575Z,15.63
2023-02-13T18:47:39.454Z,13.90
2023-02-13T18:50:07.883Z,15.40
2023-02-13T18:52:35.272Z,15.47
2023-02-13T18:55:02.637Z,15.00
2023-02-13T18:57:29.572Z,13.63
2023-02-13T18:59:56.788Z,15.37
2023-02-13T19:02:23.821Z,14.87
2023-02-13T19:04:50.856Z,16.07
2023-02-13T19:07:17.797Z,16.73
2023-02-13T19:09:44.812Z,13.43
2023-02-13T19:12:11.773Z,14.60
2023-02-13T19:14:39.754Z,14.67
2023-02-13T19:17:08.490Z,15.83
2023-02-13T19:19:35.437Z,15.70
2023-02-13T19:22:03.425Z,17.27
2023-02-13T19:24:30.449Z,15.57
2023-02-13T19:26:57.324Z,16.10
2023-02-13T19:29:24.320Z,14.80
2023-02-13T19:31:51.197Z,17.27
2023-02-13T19:34:18.166Z,16.03
2023-02-13T19:36:45.069Z,14.63
2023-02-13T19:39:12.171Z,14.83
2023-02-13T19:41:40.742Z,15.07
2023-02-13T19:44:08.746Z,14.03
2023-02-13T19:46:37.898Z,14.73
2023-02-13T19:49:05.912Z,15.90
2023-02-13T19:51:34.610Z,15.27
2023-02-13T19:54:05.520Z,14.40
2023-02-13T19:56:35.364Z,17.43
2023-02-13T19:59:02.494Z,17.07
2023-02-13T20:01:30.305Z,15.97
2023-02-13T20:03:57.778Z,19.83
2023-02-13T20:06:31.382Z,18.27
2023-02-13T20:09:02.197Z,15.07
2023-02-13T20:11:29.441Z,15.83
2023-02-13T20:14:02.245Z,16.70
2023-02-13T20:16:34.166Z,17.27
2023-02-13T20:19:06.314Z,14.17
2023-02-13T20:21:34.394Z,14.83
2023-02-13T20:24:05.189Z,15.50
2023-02-13T20:26:32.355Z,16.33
2023-02-13T20:28:59.730Z,14.90
2023-02-13T20:31:29.288Z,14.77
2023-02-13T20:33:57.326Z,15.70
2023-02-13T20:36:30.882Z,15.50
2023-02-13T20:39:01.251Z,14.83
2023-02-13T20:41:32.344Z,16.13
2023-02-13T20:44:03.278Z,14.17
2023-02-13T20:46:36.604Z,14.87
2023-02-13T20:49:03.955Z,16.90
2023-02-13T20:51:31.397Z,18.03
2023-02-13T20:53:59.904Z,16.80
2023-02-13T20:56:28.279Z,17.10
2023-02-13T20:59:00.491Z,16.93
2023-02-13T21:01:34.931Z,17.20
2023-02-13T21:04:02.471Z,17.03
2023-02-13T21:06:32.693Z,18.07
2023-02-13T21:08:59.902Z,17.47
2023-02-13T21:11:28.362Z,18.43
2023-02-13T21:13:57.387Z,17.50
2023-02-13T21:16:28.316Z,17.80
2023-02-13T21:18:58.652Z,18.87
2023-02-13T21:21:29.694Z,18.13
2023-02-13T21:24:00.366Z,17.40
2023-02-13T21:26:28.264Z,17.60
2023-02-13T21:28:55.487Z,18.50
2023-02-13T21:31:31.497Z,17.20
2023-02-13T21:34:04.645Z,18.60
2023-02-13T21:36:33.887Z,18.67
2023-02-13T21:39:02.154Z,20.17
2023-02-13T21:41:29.158Z,18.33
2023-02-13T21:43:56.056Z,17.90
2023-02-13T21:46:26.843Z,16.90
2023-02-13T21:48:56.371Z,18.87
2023-02-13T21:51:25.304Z,18.37
2023-02-13T21:53:53.225Z,16.43
2023-02-13T21:56:26.630Z,18.60
2023-02-13T21:58:54.082Z,17.10
2023-02-13T22:01:35.010Z,16.80
2023-02-13T22:04:05.890Z,18.57
2023-02-13T22:06:36.031Z,17.20
2023-02-13T22:09:13.754Z,16.23
2023-02-13T22:11:41.795Z,17.47
2023-02-13T22:14:17.055Z,16.97
2023-02-13T22:16:45.491Z,16.53
2023-02-13T22:19:15.372Z,17.63
2023-02-13T22:21:42.593Z,16.87
2023-02-13T22:24:09.733Z,18.67
2023-02-13T22:26:40.316Z,16.90
2023-02-13T22:29:11.157Z,17.60
2023-02-13T22:31:38.711Z,16.10
2023-02-13T22:34:06.383Z,17.00
2023-02-13T22:36:40.993Z,18.70
2023-02-13T22:39:10.020Z,20.20
2023-02-13T22:41:37.499Z,18.30
2023-02-13T22:44:04.695Z,18.30
2023-02-13T22:46:33.319Z,17.37
2023-02-13T22:49:00.871Z,16.67
2023-02-13T22:51:32.703Z,17.50
2023-02-13T22:54:00.497Z,15.90
2023-02-13T22:56:29.518Z,17.00
2023-02-13T22:58:56.854Z,18.67
2023-02-13T23:01:27.296Z,18.60
2023-02-13T23:03:55.203Z,17.13
2023-02-13T23:06:23.448Z,17.97
2023-02-13T23:08:52.732Z,17.13
2023-02-13T23:11:41.865Z,16.80
2023-02-13T23:14:10.074Z,17.13
2023-02-13T23:16:58.031Z,16.60
2023-02-13T23:19:27.340Z,17.00
2023-02-13T23:21:54.296Z,16.73
2023-02-13T23:24:21.806Z,17.83
2023-02-13T23:26:48.712Z,18.43
2023-02-13T23:29:16.232Z,17.27
2023-02-13T23:31:43.247Z,17.70
2023-02-13T23:34:10.304Z,16.53
2023-02-13T23:36:37.337Z,17.93
2023-02-13T23:39:04.290Z,18.10
2023-02-13T23:41:31.199Z,17.97
2023-02-13T23:43:58.132Z,17.47
2023-02-13T23:46:25.030Z,18.10
2023-02-13T23:48:52.097Z,18.50
2023-02-13T23:51:20.972Z,18.70
2023-02-13T23:53:47.878Z,19.37
2023-02-13T23:56:14.876Z,18.63
2023-02-13T23:58:41.829Z,18.87
